createdAt,value
2022-08-21T00:00:26.437Z,6.68
2022-08-21T00:02:55.730Z,2.05
2022-08-21T00:05:23.619Z,3.40
2022-08-21T00:07:50.811Z,2.13
2022-08-21T00:10:18.222Z,2.53
2022-08-21T00:12:46.367Z,2.22
2022-08-21T00:15:16.083Z,1.85
2022-08-21T00:17:43.256Z,2.72
2022-08-21T00:20:11.851Z,3.13
2022-08-21T00:22:39.190Z,2.00
2022-08-21T00:25:06.824Z,2.28
2022-08-21T00:27:34.213Z,2.13
2022-08-21T00:30:01.499Z,2.45
2022-08-21T00:32:29.170Z,2.08
2022-08-21T00:34:56.349Z,1.95
2022-08-21T00:37:23.578Z,1.85
2022-08-21T00:39:50.754Z,2.20
2022-08-21T00:42:18.762Z,3.38
2022-08-21T00:44:46.963Z,2.53
2022-08-21T00:47:14.201Z,1.73
2022-08-21T00:49:41.614Z,1.88
2022-08-21T00:52:11.402Z,2.20
2022-08-21T00:54:40.747Z,1.73
2022-08-21T00:59:41.892Z,2.90
2022-08-21T01:02:09.943Z,2.47
2022-08-21T01:04:37.079Z,2.05
2022-08-21T01:07:04.799Z,2.72
2022-08-21T01:09:31.999Z,3.08
2022-08-21T01:11:59.772Z,4.43
2022-08-21T01:14:26.999Z,2.85
2022-08-21T01:16:54.530Z,1.98
2022-08-21T01:19:22.330Z,1.90
2022-08-21T01:21:49.802Z,1.42
2022-08-21T01:24:17.108Z,2.15
2022-08-21T01:26:45.659Z,3.33
2022-08-21T01:29:12.782Z,1.70
2022-08-21T01:31:40.404Z,1.70
2022-08-21T01:34:08.019Z,1.60
2022-08-21T01:36:35.238Z,1.60
2022-08-21T01:39:02.774Z,2.13
2022-08-21T01:41:29.930Z,1.60
2022-08-21T01:43:57.215Z,1.67
2022-08-21T01:46:24.386Z,3.05
2022-08-21T01:48:51.531Z,2.25
2022-08-21T01:51:18.923Z,1.95
2022-08-21T01:53:46.045Z,2.08
2022-08-21T01:56:14.529Z,2.88
2022-08-21T01:58:42.832Z,1.92
2022-08-21T02:01:10.432Z,1.55
2022-08-21T02:03:37.791Z,2.67
2022-08-21T02:06:06.107Z,2.00
2022-08-21T02:08:33.598Z,1.45
2022-08-21T02:11:01.162Z,1.70
2022-08-21T02:13:28.342Z,1.85
2022-08-21T02:15:55.480Z,1.70
2022-08-21T02:18:22.615Z,1.70
2022-08-21T02:20:54.221Z,1.67
2022-08-21T02:23:26.928Z,1.75
2022-08-21T02:25:55.779Z,3.78
2022-08-21T02:28:22.976Z,1.83
2022-08-21T02:30:50.221Z,1.45
2022-08-21T02:33:17.787Z,1.50
2022-08-21T02:35:45.937Z,1.63
2022-08-21T02:38:14.807Z,1.65
2022-08-21T02:40:43.907Z,1.80
2022-08-21T02:43:16.368Z,2.13
2022-08-21T02:45:43.676Z,3.60
2022-08-21T02:48:12.250Z,1.85
2022-08-21T02:50:40.639Z,1.70
2022-08-21T02:53:08.539Z,3.00
2022-08-21T02:55:36.312Z,1.60
2022-08-21T02:58:04.665Z,2.17
2022-08-21T03:00:32.727Z,1.90
2022-08-21T03:03:00.297Z,1.83
2022-08-21T03:05:28.723Z,2.40
2022-08-21T03:07:56.263Z,3.03
2022-08-21T03:10:23.500Z,2.42
2022-08-21T03:12:50.988Z,2.15
2022-08-21T03:15:19.594Z,1.88
2022-08-21T03:17:47.729Z,1.95
2022-08-21T03:20:16.031Z,2.60
2022-08-21T03:22:52.789Z,3.38
2022-08-21T03:25:23.441Z,1.80
2022-08-21T03:28:08.785Z,1.83
2022-08-21T03:30:40.348Z,2.10
2022-08-21T03:33:07.535Z,2.63
2022-08-21T03:35:34.699Z,1.50
2022-08-21T03:38:01.856Z,3.33
2022-08-21T03:40:29.119Z,2.28
2022-08-21T03:42:56.377Z,2.28
2022-08-21T03:45:24.031Z,2.10
2022-08-21T03:48:00.795Z,1.90
2022-08-21T03:50:30.079Z,2.40
2022-08-21T03:52:57.839Z,1.92
2022-08-21T03:55:25.708Z,1.77
2022-08-21T03:57:52.858Z,3.17
2022-08-21T04:00:20.670Z,2.00
2022-08-21T04:02:48.066Z,2.15
2022-08-21T04:05:27.866Z,1.80
2022-08-21T04:08:13.582Z,4.32
2022-08-21T04:10:41.155Z,1.70
2022-08-21T04:13:09.046Z,2.72
2022-08-21T04:15:36.358Z,3.05
2022-08-21T04:18:03.575Z,3.97
2022-08-21T04:20:30.916Z,2.33
2022-08-21T04:22:58.195Z,1.65
2022-08-21T04:25:29.501Z,2.28
2022-08-21T04:27:56.669Z,3.35
2022-08-21T04:30:28.144Z,3.05
2022-08-21T04:32:56.103Z,2.40
2022-08-21T04:35:24.305Z,2.20
2022-08-21T04:37:51.463Z,2.03
2022-08-21T04:40:20.048Z,1.80
2022-08-21T04:42:50.249Z,3.15
2022-08-21T04:45:21.605Z,3.17
2022-08-21T04:47:53.030Z,2.13
2022-08-21T04:50:21.502Z,2.75
2022-08-21T04:52:49.011Z,1.90
2022-08-21T04:55:18.027Z,1.75
2022-08-21T04:57:48.689Z,2.15
2022-08-21T05:00:19.561Z,1.52
2022-08-21T05:02:48.679Z,2.10
2022-08-21T05:05:17.073Z,1.80
2022-08-21T05:07:44.754Z,1.63
2022-08-21T05:10:12.535Z,2.42
2022-08-21T05:12:42.721Z,1.95
2022-08-21T05:15:12.800Z,3.03
2022-08-21T05:17:40.716Z,2.20
2022-08-21T05:20:08.114Z,1.67
2022-08-21T05:22:35.314Z,3.55
2022-08-21T05:25:02.462Z,4.57
2022-08-21T05:27:31.685Z,3.08
2022-08-21T05:29:59.965Z,2.45
2022-08-21T05:32:28.747Z,1.77
2022-08-21T05:34:56.317Z,2.92
2022-08-21T05:37:23.483Z,2.97
2022-08-21T05:40:04.684Z,2.15
2022-08-21T05:42:37.822Z,3.05
2022-08-21T05:45:05.095Z,2.15
2022-08-21T05:47:32.259Z,2.90
2022-08-21T05:49:59.418Z,1.70
2022-08-21T05:52:26.564Z,2.92
2022-08-21T05:54:54.973Z,2.17
2022-08-21T05:57:22.930Z,1.88
2022-08-21T05:59:51.101Z,2.17
2022-08-21T06:02:22.200Z,1.65
2022-08-21T06:04:49.470Z,2.67
2022-08-21T06:07:16.695Z,1.70
2022-08-21T06:09:43.846Z,2.30
2022-08-21T06:12:12.246Z,1.95
2022-08-21T06:14:40.326Z,5.40
2022-08-21T06:17:11.855Z,1.50
2022-08-21T06:19:39.527Z,3.67
2022-08-21T06:22:06.914Z,1.80
2022-08-21T06:24:34.146Z,2.53
2022-08-21T06:27:06.156Z,2.47
2022-08-21T06:29:44.612Z,3.03
2022-08-21T06:32:12.656Z,2.13
2022-08-21T06:34:40.521Z,3.55
2022-08-21T06:37:07.740Z,1.85
2022-08-21T06:39:35.232Z,1.80
2022-08-21T06:42:02.809Z,1.60
2022-08-21T06:44:31.708Z,2.28
2022-08-21T06:46:58.899Z,1.95
2022-08-21T06:49:26.094Z,6.22
2022-08-21T06:51:53.298Z,1.48
2022-08-21T06:54:20.454Z,1.88
2022-08-21T06:56:47.657Z,2.85
2022-08-21T06:59:14.817Z,4.10
2022-08-21T07:01:42.275Z,2.95
2022-08-21T07:04:09.536Z,5.60
2022-08-21T07:06:36.741Z,2.80
2022-08-21T07:09:04.440Z,1.75
2022-08-21T07:11:31.608Z,3.03
2022-08-21T07:14:06.591Z,2.13
2022-08-21T07:16:33.819Z,3.97
2022-08-21T07:19:01.063Z,1.58
2022-08-21T07:21:28.242Z,2.60
2022-08-21T07:23:55.714Z,1.60
2022-08-21T07:26:24.222Z,2.85
2022-08-21T07:28:51.823Z,2.08
2022-08-21T07:31:19.908Z,2.55
2022-08-21T07:33:47.162Z,1.77
2022-08-21T07:36:14.522Z,2.22
2022-08-21T07:38:41.762Z,2.33
2022-08-21T07:41:15.027Z,2.55
2022-08-21T07:43:46.005Z,3.35
2022-08-21T07:46:13.651Z,3.22
2022-08-21T07:48:40.898Z,3.20
2022-08-21T07:51:09.810Z,2.58
2022-08-21T07:53:37.232Z,2.00
2022-08-21T07:56:05.556Z,3.47
2022-08-21T07:58:33.378Z,1.80
2022-08-21T08:01:01.176Z,2.53
2022-08-21T08:03:29.151Z,2.03
2022-08-21T08:05:56.711Z,2.53
2022-08-21T08:08:24.697Z,1.70
2022-08-21T08:10:52.039Z,2.00
2022-08-21T08:13:19.251Z,1.70
2022-08-21T08:15:46.507Z,3.55
2022-08-21T08:18:14.735Z,1.88
2022-08-21T08:20:42.173Z,2.55
2022-08-21T08:23:12.215Z,2.00
2022-08-21T08:25:39.574Z,3.22
2022-08-21T08:28:16.708Z,2.20
2022-08-21T08:30:45.309Z,2.83
2022-08-21T08:33:12.433Z,4.30
2022-08-21T08:35:41.158Z,4.03
2022-08-21T08:38:08.279Z,2.35
2022-08-21T08:40:43.142Z,2.20
2022-08-21T08:43:10.997Z,1.98
2022-08-21T08:45:43.392Z,3.50
2022-08-21T08:48:14.666Z,3.08
2022-08-21T08:50:45.502Z,1.85
2022-08-21T08:53:14.338Z,3.78
2022-08-21T08:55:42.683Z,2.78
2022-08-21T08:58:25.194Z,2.00
2022-08-21T09:00:53.104Z,2.00
2022-08-21T09:03:20.430Z,3.53
2022-08-21T09:05:49.574Z,2.53
2022-08-21T09:08:34.931Z,2.33
2022-08-21T09:11:06.399Z,2.10
2022-08-21T09:13:52.559Z,2.58
2022-08-21T09:16:20.693Z,2.88
2022-08-21T09:18:47.820Z,4.38
2022-08-21T09:21:18.445Z,1.83
2022-08-21T09:23:48.429Z,2.00
2022-08-21T09:26:18.451Z,3.25
2022-08-21T09:28:46.078Z,2.88
2022-08-21T09:31:28.186Z,2.20
2022-08-21T09:34:12.452Z,2.45
2022-08-21T09:36:42.174Z,2.55
2022-08-21T09:39:10.078Z,1.98
2022-08-21T09:41:37.470Z,2.47
2022-08-21T09:44:05.337Z,2.78
2022-08-21T09:46:32.534Z,3.00
2022-08-21T09:49:02.063Z,3.00
2022-08-21T09:51:29.263Z,2.03
2022-08-21T09:54:16.641Z,2.92
2022-08-21T09:57:14.278Z,2.10
2022-08-21T09:59:42.079Z,2.40
2022-08-21T10:02:21.455Z,2.67
2022-08-21T10:04:52.998Z,2.65
2022-08-21T10:07:22.271Z,2.78
2022-08-21T10:09:59.536Z,2.90
2022-08-21T10:12:30.621Z,2.83
2022-08-21T10:15:11.263Z,2.20
2022-08-21T10:17:45.202Z,2.75
2022-08-21T10:20:16.282Z,3.17
2022-08-21T10:22:43.414Z,5.15
2022-08-21T10:25:10.547Z,2.58
2022-08-21T10:27:40.701Z,4.15
2022-08-21T10:30:15.879Z,2.38
2022-08-21T10:32:43.018Z,2.88
2022-08-21T10:35:10.281Z,2.45
2022-08-21T10:37:56.290Z,2.03
2022-08-21T10:40:23.522Z,4.55
2022-08-21T10:43:05.590Z,5.13
2022-08-21T10:45:32.709Z,2.72
2022-08-21T10:48:04.646Z,3.63
2022-08-21T10:50:33.651Z,6.40
2022-08-21T10:53:17.860Z,3.25
2022-08-21T10:56:06.685Z,2.90
2022-08-21T10:58:37.847Z,3.13
2022-08-21T11:01:21.443Z,2.47
2022-08-21T11:03:53.879Z,2.53
2022-08-21T11:06:23.530Z,3.20
2022-08-21T11:08:58.317Z,3.83
2022-08-21T11:11:35.790Z,2.90
2022-08-21T11:14:03.379Z,2.97
2022-08-21T11:16:43.766Z,2.42
2022-08-21T11:19:16.230Z,2.67
2022-08-21T11:21:46.323Z,2.38
2022-08-21T11:24:19.494Z,3.05
2022-08-21T11:26:51.285Z,3.08
2022-08-21T11:29:38.948Z,5.68
2022-08-21T11:32:06.049Z,3.47
2022-08-21T11:34:41.335Z,3.33
2022-08-21T11:37:14.895Z,2.42
2022-08-21T11:40:17.681Z,2.53
2022-08-21T11:43:11.918Z,3.05
2022-08-21T11:45:39.098Z,2.75
2022-08-21T11:48:34.202Z,3.15
2022-08-21T11:51:02.351Z,2.80
2022-08-21T11:53:54.190Z,2.85
2022-08-21T11:56:43.234Z,5.35
2022-08-21T11:59:13.013Z,3.55
2022-08-21T12:01:42.540Z,3.47
2022-08-21T12:04:24.415Z,2.50
2022-08-21T12:06:53.467Z,3.00
2022-08-21T12:09:26.664Z,2.58
2022-08-21T12:12:12.515Z,3.13
2022-08-21T12:14:41.796Z,2.70
2022-08-21T12:17:10.364Z,4.20
2022-08-21T12:19:39.828Z,3.58
2022-08-21T12:22:07.467Z,2.53
2022-08-21T12:24:38.602Z,3.20
2022-08-21T12:27:27.430Z,3.22
2022-08-21T12:29:57.091Z,2.95
2022-08-21T12:32:26.069Z,3.38
2022-08-21T12:35:25.167Z,3.35
2022-08-21T12:37:59.085Z,5.28
2022-08-21T12:40:35.003Z,2.70
2022-08-21T12:43:03.963Z,8.00
2022-08-21T12:45:33.604Z,2.72
2022-08-21T12:48:03.555Z,4.82
2022-08-21T12:50:38.663Z,2.72
2022-08-21T12:53:20.295Z,3.55
2022-08-21T12:55:47.883Z,2.95
2022-08-21T12:58:33.447Z,2.80
2022-08-21T13:01:08.826Z,2.50
2022-08-21T13:03:37.682Z,3.58
2022-08-21T13:06:05.988Z,3.38
2022-08-21T13:08:39.534Z,2.63
2022-08-21T13:11:13.412Z,2.80
2022-08-21T13:13:47.017Z,3.83
2022-08-21T13:16:21.669Z,6.53
2022-08-21T13:19:01.060Z,3.45
2022-08-21T13:21:31.063Z,4.13
2022-08-21T13:24:31.720Z,3.13
2022-08-21T13:26:58.356Z,2.88
2022-08-21T13:29:29.772Z,2.78
2022-08-21T13:31:58.439Z,3.05
2022-08-21T13:34:27.407Z,2.83
2022-08-21T13:36:57.411Z,3.15
2022-08-21T13:39:25.302Z,2.70
2022-08-21T13:41:55.534Z,3.60
2022-08-21T13:44:27.383Z,4.88
2022-08-21T13:46:55.513Z,2.47
2022-08-21T13:49:24.975Z,3.10
2022-08-21T13:51:53.077Z,4.15
2022-08-21T13:54:28.109Z,4.18
2022-08-21T13:56:55.974Z,3.28
2022-08-21T13:59:36.945Z,3.72
2022-08-21T14:02:12.898Z,3.25
2022-08-21T14:04:52.992Z,2.60
2022-08-21T14:07:26.889Z,3.75
2022-08-21T14:09:54.363Z,4.63
2022-08-21T14:12:27.023Z,3.25
2022-08-21T14:14:55.060Z,2.83
2022-08-21T14:17:34.041Z,3.20
2022-08-21T14:20:01.818Z,3.97
2022-08-21T14:22:29.274Z,3.45
2022-08-21T14:25:05.643Z,3.00
2022-08-21T14:27:33.166Z,5.55
2022-08-21T14:30:01.937Z,2.97
2022-08-21T14:32:32.919Z,3.50
2022-08-21T14:35:00.542Z,3.25
2022-08-21T14:37:27.767Z,2.42
2022-08-21T14:39:55.034Z,4.82
2022-08-21T14:42:22.494Z,4.57
2022-08-21T14:44:49.732Z,2.35
2022-08-21T14:47:16.958Z,3.42
2022-08-21T14:49:44.253Z,4.55
2022-08-21T14:52:11.402Z,4.55
2022-08-21T14:54:38.567Z,6.00
2022-08-21T14:57:08.591Z,2.90
2022-08-21T14:59:36.409Z,2.67
2022-08-21T15:02:05.299Z,2.75
2022-08-21T15:04:32.767Z,2.60
2022-08-21T15:06:59.959Z,2.83
2022-08-21T15:09:27.198Z,3.47
2022-08-21T15:11:57.254Z,4.50
2022-08-21T15:14:27.085Z,3.97
2022-08-21T15:16:54.335Z,5.85
2022-08-21T15:19:21.606Z,2.60
2022-08-21T15:21:48.903Z,4.80
2022-08-21T15:24:16.391Z,3.00
2022-08-21T15:26:44.463Z,4.18
2022-08-21T15:29:11.958Z,2.85
2022-08-21T15:31:50.666Z,3.60
2022-08-21T15:34:18.362Z,4.72
2022-08-21T15:36:45.519Z,2.92
2022-08-21T15:39:12.807Z,4.07
2022-08-21T15:41:40.040Z,3.30
2022-08-21T15:44:07.237Z,3.42
2022-08-21T15:46:34.417Z,4.47
2022-08-21T15:49:01.619Z,3.25
2022-08-21T15:51:28.761Z,3.65
2022-08-21T15:53:55.942Z,3.25
2022-08-21T15:56:24.748Z,3.03
2022-08-21T15:58:53.690Z,4.82
2022-08-21T16:01:22.120Z,3.10
2022-08-21T16:03:50.387Z,3.83
2022-08-21T16:06:17.614Z,4.45
2022-08-21T16:09:04.791Z,5.40
2022-08-21T16:11:32.043Z,3.78
2022-08-21T16:13:59.412Z,4.45
2022-08-21T16:16:26.587Z,3.75
2022-08-21T16:18:53.941Z,3.22
2022-08-21T16:21:22.083Z,4.32
2022-08-21T16:23:49.623Z,2.70
2022-08-21T16:26:18.549Z,4.72
2022-08-21T16:28:46.460Z,4.45
2022-08-21T16:31:15.320Z,3.83
2022-08-21T16:33:50.278Z,4.95
2022-08-21T16:36:20.779Z,3.88
2022-08-21T16:38:48.472Z,4.90
2022-08-21T16:41:17.789Z,3.20
2022-08-21T16:43:45.928Z,3.65
2022-08-21T16:46:14.093Z,3.88
2022-08-21T16:48:42.356Z,3.13
2022-08-21T16:51:09.496Z,3.20
2022-08-21T16:53:36.737Z,3.35
2022-08-21T16:56:04.252Z,5.10
2022-08-21T16:58:33.166Z,4.13
2022-08-21T17:01:01.508Z,3.20
2022-08-21T17:03:48.001Z,4.28
2022-08-21T17:06:16.068Z,5.82
2022-08-21T17:08:43.211Z,4.43
2022-08-21T17:11:13.608Z,7.82
2022-08-21T17:14:01.997Z,3.30
2022-08-21T17:16:32.439Z,3.92
2022-08-21T17:18:59.594Z,3.83
2022-08-21T17:21:26.773Z,4.55
2022-08-21T17:23:53.907Z,3.40
2022-08-21T17:26:21.094Z,3.78
2022-08-21T17:28:50.940Z,3.45
2022-08-21T17:31:21.440Z,3.13
2022-08-21T17:33:56.484Z,4.53
2022-08-21T17:38:51.314Z,3.78
2022-08-21T17:41:20.396Z,3.45
2022-08-21T17:43:47.959Z,4.20
2022-08-21T17:46:18.010Z,3.50
2022-08-21T17:48:47.386Z,5.55
2022-08-21T17:51:14.904Z,3.25
2022-08-21T17:53:42.586Z,4.50
2022-08-21T17:56:09.909Z,2.80
2022-08-21T17:58:38.638Z,4.68
2022-08-21T18:01:06.289Z,3.28
2022-08-21T18:03:37.138Z,3.45
2022-08-21T18:06:06.111Z,3.67
2022-08-21T18:08:33.437Z,5.45
2022-08-21T18:11:00.796Z,3.10
2022-08-21T18:13:30.525Z,3.42
2022-08-21T18:15:58.563Z,3.90
2022-08-21T18:18:27.035Z,3.58
2022-08-21T18:20:55.977Z,4.95
2022-08-21T18:23:33.021Z,6.95
2022-08-21T18:26:11.070Z,4.18
2022-08-21T18:28:38.534Z,4.90
2022-08-21T18:31:07.894Z,4.70
2022-08-21T18:33:35.702Z,5.18
2022-08-21T18:36:04.609Z,5.65
2022-08-21T18:38:31.951Z,5.78
2022-08-21T18:40:59.773Z,8.68
2022-08-21T18:43:27.183Z,10.82
2022-08-21T18:45:54.653Z,11.35
2022-08-21T18:48:21.898Z,4.97
2022-08-21T18:50:54.278Z,4.78
2022-08-21T18:53:27.790Z,5.22
2022-08-21T18:55:57.064Z,4.60
2022-08-21T18:58:32.211Z,5.30
2022-08-21T19:00:59.442Z,5.32
2022-08-21T19:03:26.643Z,7.00
2022-08-21T19:05:54.473Z,5.43
2022-08-21T19:08:23.951Z,6.55
2022-08-21T19:10:52.446Z,4.60
2022-08-21T19:13:21.301Z,6.82
2022-08-21T19:15:52.678Z,7.03
2022-08-21T19:21:08.187Z,7.07
2022-08-21T19:23:35.885Z,5.75
2022-08-21T19:26:04.234Z,8.02
2022-08-21T19:28:33.053Z,5.75
2022-08-21T19:31:02.621Z,5.65
2022-08-21T19:33:34.122Z,6.90
2022-08-21T19:36:02.440Z,7.07
2022-08-21T19:38:29.611Z,6.03
2022-08-21T19:40:57.238Z,6.55
2022-08-21T19:43:24.833Z,4.53
2022-08-21T19:45:54.588Z,6.90
2022-08-21T19:48:21.875Z,5.57
2022-08-21T19:50:49.010Z,8.20
2022-08-21T19:53:18.343Z,5.50
2022-08-21T19:55:46.513Z,4.72
2022-08-21T19:58:28.831Z,5.97
2022-08-21T20:00:56.083Z,6.30
2022-08-21T20:03:23.253Z,5.75
2022-08-21T20:05:50.629Z,6.90
2022-08-21T20:08:20.136Z,8.80
2022-08-21T20:10:47.510Z,13.88
2022-08-21T20:13:17.630Z,8.35
2022-08-21T20:15:45.947Z,7.97
2022-08-21T20:18:13.796Z,9.88
2022-08-21T20:20:41.122Z,7.38
2022-08-21T20:23:10.650Z,7.57
2022-08-21T20:25:39.079Z,8.65
2022-08-21T20:28:06.490Z,8.68
2022-08-21T20:30:35.204Z,9.77
2022-08-21T20:33:02.801Z,6.88
2022-08-21T20:35:29.976Z,7.63
2022-08-21T20:37:58.611Z,9.68
2022-08-21T20:40:32.073Z,9.90
2022-08-21T20:43:00.757Z,7.30
2022-08-21T20:45:29.686Z,9.23
2022-08-21T20:48:16.878Z,9.07
2022-08-21T20:50:53.055Z,8.77
2022-08-21T20:53:24.974Z,11.43
2022-08-21T20:55:52.198Z,7.18
2022-08-21T20:58:29.575Z,11.15
2022-08-21T21:00:57.206Z,8.95
2022-08-21T21:03:34.642Z,8.23
2022-08-21T21:06:03.667Z,7.80
2022-08-21T21:08:40.162Z,7.22
2022-08-21T21:11:11.540Z,8.18
2022-08-21T21:13:46.775Z,11.40
2022-08-21T21:16:34.230Z,7.80
2022-08-21T21:19:03.525Z,8.55
2022-08-21T21:21:35.412Z,7.15
2022-08-21T21:24:12.101Z,9.70
2022-08-21T21:26:46.303Z,10.38
2022-08-21T21:29:20.222Z,5.65
2022-08-21T21:31:48.142Z,8.85
2022-08-21T21:34:17.225Z,7.45
2022-08-21T21:36:51.530Z,7.78
2022-08-21T21:39:23.671Z,7.25
2022-08-21T21:41:54.374Z,6.63
2022-08-21T21:44:33.319Z,6.90
2022-08-21T21:47:09.378Z,7.63
2022-08-21T21:49:36.494Z,5.45
2022-08-21T21:52:10.557Z,6.75
2022-08-21T21:54:51.835Z,6.77
2022-08-21T21:57:45.484Z,6.30
2022-08-21T22:00:20.242Z,7.18
2022-08-21T22:03:02.670Z,7.15
2022-08-21T22:08:30.388Z,6.10
2022-08-21T22:11:08.882Z,8.02
2022-08-21T22:14:13.447Z,6.05
2022-08-21T22:16:41.334Z,7.63
2022-08-21T22:19:21.955Z,6.07
2022-08-21T22:21:54.470Z,6.72
2022-08-21T22:24:27.661Z,5.70
2022-08-21T22:26:59.642Z,7.18
2022-08-21T22:29:42.959Z,6.93
2022-08-21T22:32:11.518Z,6.10
2022-08-21T22:34:39.133Z,9.10
2022-08-21T22:37:10.318Z,6.68
2022-08-21T22:39:42.064Z,8.18
2022-08-21T22:42:14.842Z,6.63
2022-08-21T22:44:52.911Z,7.45
2022-08-21T22:47:30.900Z,6.18
2022-08-21T22:50:04.352Z,5.40
2022-08-21T22:52:38.435Z,6.82
2022-08-21T22:55:37.158Z,5.65
2022-08-21T22:58:12.438Z,8.45
2022-08-21T23:00:45.607Z,8.45
2022-08-21T23:03:24.739Z,5.90
2022-08-21T23:05:52.055Z,8.40
2022-08-21T23:11:17.890Z,6.47
2022-08-21T23:13:46.248Z,6.93
2022-08-21T23:16:22.539Z,5.70
2022-08-21T23:19:07.603Z,5.40
2022-08-21T23:21:48.632Z,5.18
2022-08-21T23:24:34.163Z,5.63
2022-08-21T23:27:10.163Z,6.07
2022-08-21T23:29:40.289Z,7.45
2022-08-21T23:32:16.496Z,5.78
2022-08-21T23:34:43.609Z,5.65
2022-08-21T23:40:22.364Z,5.13
2022-08-21T23:43:18.382Z,5.63
2022-08-21T23:46:04.673Z,5.68
2022-08-21T23:48:37.051Z,5.65
2022-08-21T23:51:11.122Z,7.35
2022-08-21T23:53:50.814Z,5.53
2022-08-21T23:56:27.322Z,4.40
2022-08-21T23:58:54.594Z,5.55
